createdAt,value
2018-11-27T00:04:58.442Z,100.00
2018-11-27T00:10:01.786Z,100.00
2018-11-27T00:15:25.896Z,100.00
2018-11-27T00:20:29.302Z,100.00
2018-11-27T00:25:32.658Z,100.00
2018-11-27T00:30:36.064Z,100.00
2018-11-27T00:35:39.418Z,100.00
2018-11-27T00:40:49.960Z,100.00
2018-11-27T00:45:53.832Z,100.00
2018-11-27T00:50:57.203Z,100.00
2018-11-27T00:56:01.001Z,100.00
2018-11-27T01:01:04.518Z,100.00
2018-11-27T01:06:07.935Z,100.00
2018-11-27T01:11:11.301Z,100.00
2018-11-27T01:16:14.644Z,100.00
2018-11-27T01:21:18.160Z,100.00
2018-11-27T01:26:21.618Z,100.00
2018-11-27T01:31:24.985Z,100.00
2018-11-27T01:36:28.419Z,100.00
2018-11-27T01:46:40.873Z,99.93
2018-11-27T01:51:44.583Z,100.00
2018-11-27T01:56:47.987Z,100.00
2018-11-27T02:01:51.350Z,100.00
2018-11-27T02:06:54.719Z,99.89
2018-11-27T02:11:58.163Z,100.00
2018-11-27T02:17:01.589Z,100.00
2018-11-27T02:22:04.952Z,100.00
2018-11-27T02:27:08.323Z,99.88
2018-11-27T02:32:11.725Z,99.01
2018-11-27T02:37:15.100Z,100.00
2018-11-27T02:42:18.600Z,99.40
2018-11-27T02:52:45.611Z,99.55
2018-11-27T02:57:48.991Z,99.40
2018-11-27T03:02:52.385Z,99.57
2018-11-27T03:07:55.742Z,99.31
2018-11-27T03:12:59.112Z,99.74
2018-11-27T03:18:02.494Z,99.98
2018-11-27T03:23:06.621Z,100.00
2018-11-27T03:28:10.007Z,100.00
2018-11-27T03:33:13.462Z,99.75
2018-11-27T03:38:16.858Z,98.43
2018-11-27T03:43:20.273Z,98.25
2018-11-27T03:48:23.752Z,97.61
2018-11-27T03:53:27.194Z,96.28
2018-11-27T03:58:30.802Z,97.40
2018-11-27T04:03:34.215Z,97.61
2018-11-27T04:08:37.615Z,98.18
2018-11-27T04:13:41.026Z,95.83
2018-11-27T04:18:44.386Z,96.75
2018-11-27T04:23:47.759Z,96.26
2018-11-27T04:28:51.166Z,95.06
2018-11-27T04:33:54.523Z,95.48
2018-11-27T04:38:57.883Z,95.28
2018-11-27T04:44:01.329Z,95.10
2018-11-27T04:49:04.954Z,94.92
2018-11-27T04:54:08.325Z,94.87
2018-11-27T04:59:11.727Z,93.22
2018-11-27T05:04:15.122Z,90.77
2018-11-27T05:09:18.524Z,92.06
2018-11-27T05:14:21.917Z,93.81
2018-11-27T05:19:25.268Z,93.30
2018-11-27T05:24:28.708Z,93.08
2018-11-27T05:29:32.067Z,93.44
2018-11-27T05:39:44.765Z,93.96
2018-11-27T05:44:48.185Z,93.20
2018-11-27T05:49:51.613Z,92.79
2018-11-27T05:54:55.033Z,94.20
2018-11-27T05:59:58.411Z,91.58
2018-11-27T06:05:01.785Z,88.92
2018-11-27T06:10:05.469Z,88.85
2018-11-27T06:15:19.452Z,88.02
2018-11-27T06:20:23.242Z,89.17
2018-11-27T06:25:27.783Z,89.11
2018-11-27T06:30:32.202Z,90.01
2018-11-27T06:35:39.750Z,89.32
2018-11-27T06:40:43.305Z,90.33
2018-11-27T06:45:46.698Z,91.15
2018-11-27T06:50:50.090Z,93.08
2018-11-27T06:55:53.460Z,92.53
2018-11-27T07:00:56.816Z,91.62
2018-11-27T07:06:00.254Z,90.19
2018-11-27T07:11:03.539Z,91.88
2018-11-27T07:16:06.936Z,91.62
2018-11-27T07:21:10.258Z,91.83
2018-11-27T07:26:13.688Z,92.56
2018-11-27T07:31:17.620Z,93.78
2018-11-27T07:36:21.118Z,92.77
2018-11-27T07:41:24.479Z,93.25
2018-11-27T07:46:27.883Z,93.68
2018-11-27T07:51:31.240Z,93.12
2018-11-27T07:56:34.640Z,93.42
2018-11-27T08:01:38.043Z,93.14
2018-11-27T08:06:41.456Z,92.19
2018-11-27T08:11:44.849Z,92.38
2018-11-27T08:16:48.257Z,93.11
2018-11-27T08:21:51.644Z,94.98
2018-11-27T08:26:55.051Z,94.85
2018-11-27T08:31:58.462Z,93.57
2018-11-27T08:37:01.887Z,94.23
2018-11-27T08:47:14.819Z,94.03
2018-11-27T08:52:18.172Z,93.83
2018-11-27T08:57:21.527Z,93.14
2018-11-27T09:02:25.003Z,93.09
2018-11-27T09:07:28.391Z,94.18
2018-11-27T09:12:31.837Z,92.72
2018-11-27T09:17:35.193Z,92.70
2018-11-27T09:22:38.879Z,92.85
2018-11-27T09:27:42.329Z,92.82
2018-11-27T09:32:45.716Z,90.90
2018-11-27T09:37:49.067Z,89.17
2018-11-27T09:42:52.456Z,86.55
2018-11-27T09:47:59.379Z,83.93
2018-11-27T09:53:02.737Z,83.59
2018-11-27T09:58:06.756Z,84.32
2018-11-27T10:03:14.636Z,83.66
2018-11-27T10:08:17.982Z,83.86
2018-11-27T10:13:21.323Z,78.65
2018-11-27T10:18:24.665Z,78.64
2018-11-27T10:23:28.066Z,77.10
2018-11-27T10:28:32.161Z,76.63
2018-11-27T10:33:34.871Z,76.86
2018-11-27T10:38:39.577Z,76.19
2018-11-27T10:43:42.969Z,77.21
2018-11-27T10:48:46.497Z,77.07
2018-11-27T10:53:49.813Z,77.42
2018-11-27T10:58:53.415Z,77.13
2018-11-27T11:03:56.755Z,75.66
2018-11-27T11:09:00.435Z,76.50
2018-11-27T11:14:03.831Z,75.28
2018-11-27T11:19:07.572Z,74.60
2018-11-27T11:24:10.942Z,74.77
2018-11-27T11:29:14.441Z,73.90
2018-11-27T11:34:17.791Z,73.55
2018-11-27T11:39:21.139Z,73.71
2018-11-27T11:44:24.557Z,71.95
2018-11-27T11:49:27.916Z,72.69
2018-11-27T11:54:31.275Z,70.80
2018-11-27T11:59:34.658Z,69.94
2018-11-27T12:04:38.013Z,71.78
2018-11-27T12:09:41.398Z,68.55
2018-11-27T12:14:44.788Z,69.96
2018-11-27T12:19:48.179Z,70.51
2018-11-27T12:24:51.519Z,71.93
2018-11-27T12:29:54.920Z,69.07
2018-11-27T12:34:58.258Z,69.67
2018-11-27T12:40:01.608Z,69.70
2018-11-27T12:45:05.364Z,69.24
2018-11-27T12:50:47.489Z,69.50
2018-11-27T12:55:51.284Z,67.91
2018-11-27T13:00:54.650Z,70.21
2018-11-27T13:05:58.001Z,68.89
2018-11-27T13:11:01.333Z,69.91
2018-11-27T13:16:04.698Z,69.97
2018-11-27T13:21:08.111Z,70.30
2018-11-27T13:26:11.625Z,71.18
2018-11-27T13:31:15.605Z,70.48
2018-11-27T13:36:19.001Z,71.97
2018-11-27T13:41:22.373Z,71.76
2018-11-27T13:46:50.713Z,72.52
2018-11-27T13:51:54.064Z,71.94
2018-11-27T13:56:57.428Z,73.39
2018-11-27T14:02:00.875Z,71.54
2018-11-27T14:07:04.314Z,71.59
2018-11-27T14:12:07.675Z,71.52
2018-11-27T14:22:25.088Z,71.44
2018-11-27T14:27:23.775Z,72.24
2018-11-27T14:32:27.201Z,73.16
2018-11-27T14:37:30.550Z,72.51
2018-11-27T14:42:34.027Z,72.98
2018-11-27T14:47:37.323Z,73.65
2018-11-27T14:52:40.714Z,74.39
2018-11-27T14:57:44.058Z,75.37
2018-11-27T15:02:47.467Z,75.61
2018-11-27T15:07:50.820Z,75.26
2018-11-27T15:12:54.117Z,77.55
2018-11-27T15:17:57.630Z,77.90
2018-11-27T15:23:01.026Z,78.96
2018-11-27T15:33:18.519Z,81.63
2018-11-27T15:38:16.742Z,81.76
2018-11-27T15:43:20.125Z,81.75
2018-11-27T15:48:23.557Z,83.82
2018-11-27T15:58:36.221Z,85.54
2018-11-27T16:03:39.537Z,85.80
2018-11-27T16:08:42.982Z,87.35
2018-11-27T16:13:49.105Z,94.40
2018-11-27T16:23:59.435Z,88.14
2018-11-27T16:44:30.135Z,92.26
2018-11-27T16:49:33.448Z,91.68
2018-11-27T16:54:56.226Z,90.22
2018-11-27T17:00:12.336Z,88.91
2018-11-27T17:10:25.324Z,89.71
2018-11-27T17:20:57.563Z,90.87
2018-11-27T17:31:29.537Z,90.05
2018-11-27T17:36:33.442Z,90.08
2018-11-27T17:46:45.602Z,90.83
2018-11-27T17:57:17.874Z,90.95
2018-11-27T18:07:36.395Z,90.74
2018-11-27T18:17:49.391Z,90.57
2018-11-27T18:23:05.485Z,90.60
2018-11-27T18:28:24.088Z,90.79
2018-11-27T18:33:39.966Z,90.52
2018-11-27T18:38:56.205Z,91.41
2018-11-27T18:44:12.612Z,90.98
2018-11-27T18:49:28.931Z,92.24
2018-11-27T18:54:44.294Z,92.51
2018-11-27T19:00:05.178Z,92.36
2018-11-27T19:05:20.463Z,93.06
2018-11-27T19:15:57.133Z,94.34
2018-11-27T19:36:40.492Z,96.69
2018-11-27T19:52:01.495Z,97.19
2018-11-27T20:02:14.704Z,97.67
2018-11-27T20:12:27.149Z,98.65
2018-11-27T20:22:39.157Z,97.94
2018-11-27T20:32:56.532Z,99.78
2018-11-27T20:38:01.575Z,100.00
2018-11-27T20:48:18.284Z,100.00
2018-11-27T21:03:41.247Z,100.00
2018-11-27T21:13:53.652Z,100.00
2018-11-27T21:24:07.221Z,100.00
2018-11-27T21:39:28.455Z,100.00
2018-11-27T21:49:40.539Z,100.00
2018-11-27T22:05:02.999Z,100.00
2018-11-27T22:10:27.858Z,100.00
2018-11-27T22:15:50.780Z,100.00
2018-11-27T22:20:54.193Z,100.00
2018-11-27T22:25:57.617Z,100.00
2018-11-27T22:31:01.025Z,100.00
2018-11-27T22:36:04.374Z,100.00
2018-11-27T22:46:16.600Z,100.00
2018-11-27T22:51:20.275Z,100.00
2018-11-27T22:56:23.650Z,100.00
2018-11-27T23:01:27.016Z,100.00
2018-11-27T23:06:30.522Z,100.00
2018-11-27T23:11:33.920Z,100.00
2018-11-27T23:16:37.284Z,100.00
2018-11-27T23:21:40.657Z,100.00
2018-11-27T23:26:44.018Z,100.00
2018-11-27T23:31:47.389Z,100.00
2018-11-27T23:36:50.812Z,100.00
2018-11-27T23:42:13.561Z,100.00
2018-11-27T23:47:16.977Z,100.00
2018-11-27T23:52:20.414Z,100.00
2018-11-27T23:57:23.838Z,100.00
